Main page
METAR-TAF:

METAR-TAF

Airports :

St Mary's Airport

Isles of Scilly, England

latitude: 49-55N, longitude: 006-18W, elevation: 31 m

Current weather observation

The report was made 7 hours and 16 minutes ago, at 17:20 UTC
Wind 6 kt from the Northeast
Temperature 15°C
Humidity 82%
Pressure 1022 hPa
Visibility 10 km or more
no clouds below 1500 m and no cumulonimbus

METAR: EGHE 231720Z 05006KT CAVOK 15/12 Q1022

Time: 01:36 (00:36 UTC)

Forecast

The report was made 10 hours and 31 minutes ago, at 14:05 UTC
Forecast valid from 23 at 15 UTC to 23 at 18 UTC
Wind 7 kt from the East/Northeast
Visibility 10 km or more
Few clouds at a height of 4500 ft

TAF: EGHE 231405Z 2315/2318 07007KT 9999 FEW045

Weather observations and forecasts of more than 4000 airports (METAR and TAF reports).

The available stations are represented by yellow and red dots on the map.

Hover mouse over dot to see the name of the station.

Then click to see weather observations and forecasts.

To change the map : click on the green buttons with a black cross to zoom in, on the green button with a dash to zoom out, or on the green arrows for adjacent maps.


METAR-TAF: